CYTSCYXZ

Guest
Details From CYTS - TIMMINS
To CYXZ - WAWA
Flight Number -
Tags generated
Created
Modified
Stats Distance 144 nm / 266 km
Max Altitude 10,600 ft / 3,231 m
Waypoints 3
Social Downloads 0
Likes 0
Share VATSIM

Download

Looking for another format? Having issues loading an existing format? Contact us
Advertisement - Login to hide

Notes

Basic altitude profile: - Ascent Rate: 2500ft/min - Ascent Speed: 250kts - Cruise Altitude: 35000ft - Cruise Speed: 420kts - Descent Rate: 1500ft/min - Descent Speed: 250kts Options: - Use NATs: yes - Use PACOTS: yes - Use low airways: no - Use high airways: yes

Route

CYTS JARRO CYXZ

ID Type Via Altitude Latitude Longitude Leg Dist Tot Dist Heading (true) Name
O CYTS APT - 0 ft / 0 m 48.57014˚ -81.37549˚ - 0 nm - TIMMINS
JARRO FIX - 10,600 ft / 3,231 m 48.00005˚ -83.43323˚ 89 nm 89 nm 248° / 247° -
O CYXZ APT - 0 ft / 0 m 47.96667˚ -84.78667˚ 54 nm 143 nm 268° / 267° WAWA

Altitude Profile

Advertisement - Login to hide

CYTS

Details ICAO CYTS (YTS)
Name TIMMINS
Region Canada
Timezone America/Toronto (UTC-5.0)
Stats Elevation 967 ft / 295 m (AMSL)
Location 48.570140° -81.375487°
Runways 2
Magnetic Variation 10.495° W

METAR

CYTS 161800Z 31004KT 290V360 15SM FEW010 FEW210 M19/M25 A3005 RMK SF1CI1 SLP212

Decode

TAF

TAF CYTS 161338Z 1614/1702 VRB03KT P6SM BKN030 TEMPO 1614/1624 5SM -SN OVC020 FM170000 32005KT P6SM SCT015 RMK NXT FCST BY 162000Z

Decode

Departure Runways

ID Width Length Bearing (true) Bearing (mag) Surface Threshold Offset Overrun Length
03 150 ft / 46 m 5,974 ft / 1,821 m 21.05° 31.54° Asphalt 0 ft / 0 m 0 ft / 0 m
10 150 ft / 46 m 4,897 ft / 1,493 m 91.19° 101.68° Asphalt 0 ft / 0 m 0 ft / 0 m
21 150 ft / 46 m 5,974 ft / 1,821 m 201.06° 211.55° Asphalt 0 ft / 0 m 0 ft / 0 m
28 150 ft / 46 m 4,897 ft / 1,493 m 271.20° 281.69° Asphalt 0 ft / 0 m 0 ft / 0 m

CYXZ

Details ICAO CYXZ (YXZ)
Name WAWA
Region Canada
Timezone America/Toronto (UTC-5.0)
Stats Elevation 942 ft / 287 m (AMSL)
Location 47.966667° -84.786667°
Runways 1
Magnetic Variation 7.570° W

METAR

CYXZ 161800Z 06004KT 020V090 15SM SCT024 SCT110 SCT230 M19/M25 A3012 RMK SC3AC1CS1 AC TR CS TR SLP235

Decode

TAF

TAF CYXZ 161238Z 1613/1624 VRB03KT P6SM SKC FM161800 05006KT P6SM FEW030 RMK NXT FCST BY 162000Z

Decode

Destination Runways

ID Width Length Bearing (true) Bearing (mag) Surface Threshold Offset Overrun Length
03 100 ft / 30 m 4,422 ft / 1,348 m 23.52° 31.09° Asphalt 0 ft / 0 m 0 ft / 0 m
21 100 ft / 30 m 4,422 ft / 1,348 m 203.52° 211.09° Asphalt 689 ft / 210 m 0 ft / 0 m